Time;durP1;ratioP1;P1;durP2;ratioP2;P2;SDS_P1;SDS_P2;PMS_P1;PMS_P2;Temp;Humidity;BMP_temperature;BMP_pressure;BME280_temperature;BME280_humidity;BME280_pressure;Samples;Min_cycle;Max_cycle;Signal;HPM_P1;HPM_P2
2021/05/27 00:01:46;;;;;;;1.83;1.23;;;;;;;;;;5056011;28;20874;-80
2021/05/27 00:04:11;;;;;;;2.13;1.30;;;;;;;;;;5078307;28;20098;-79
2021/05/27 00:06:36;;;;;;;2.15;1.40;;;;;;;;;;5076523;28;20024;-80
2021/05/27 00:09:03;;;;;;;3.05;1.40;;;;;;;;;;5071698;28;20063;-80
2021/05/27 00:11:30;;;;;;;2.97;1.33;;;;;;;;;;5073875;28;20021;-80
2021/05/27 00:13:56;;;;;;;3.83;1.60;;;;;;;;;;5075688;28;20020;-79
2021/05/27 00:16:21;;;;;;;1.90;1.25;;;;;;;;;;5055845;28;20420;-80
2021/05/27 00:18:51;;;;;;;2.10;1.30;;;;;;;;;;5055659;28;20190;-79
2021/05/27 00:21:16;;;;;;;2.13;1.30;;;;;;;;;;5056590;28;20036;-78
2021/05/27 00:23:41;;;;;;;1.98;1.23;;;;;;;;;;5055085;28;20390;-80
2021/05/27 00:26:07;;;;;;;2.03;1.23;;;;;;;;;;5059315;28;20025;-80
2021/05/27 00:28:32;;;;;;;1.27;1.17;;;;;;;;;;5038292;28;20031;-79
2021/05/27 00:30:57;;;;;;;1.83;1.30;;;;;;;;;;5054178;28;20458;-80
2021/05/27 00:33:23;;;;;;;1.17;1.00;;;;;;;;;;5056372;28;20108;-80
2021/05/27 00:35:48;;;;;;;2.90;1.10;;;;;;;;;;5059653;28;20046;-80
2021/05/27 00:38:14;;;;;;;2.85;1.20;;;;;;;;;;5076634;28;20032;-80
2021/05/27 00:40:39;;;;;;;1.65;1.20;;;;;;;;;;5056574;28;20107;-80
2021/05/27 00:43:05;;;;;;;2.70;1.10;;;;;;;;;;5072939;28;20013;-79
2021/05/27 00:45:30;;;;;;;2.35;1.05;;;;;;;;;;5055899;28;20052;-80
2021/05/27 00:47:56;;;;;;;1.52;1.13;;;;;;;;;;5058351;28;20024;-80
2021/05/27 00:50:22;;;;;;;3.53;1.00;;;;;;;;;;5078400;28;20025;-81
2021/05/27 00:52:51;;;;;;;1.40;1.20;;;;;;;;;;5059189;28;20060;-79
2021/05/27 00:55:18;;;;;;;2.40;1.00;;;;;;;;;;5067510;28;20002;-80
2021/05/27 00:57:43;;;;;;;2.72;1.00;;;;;;;;;;5074511;28;20033;-80
2021/05/27 01:00:12;;;;;;;2.17;1.13;;;;;;;;;;5066799;28;20067;-81
2021/05/27 01:02:38;;;;;;;3.10;0.90;;;;;;;;;;5056673;28;20025;-80
2021/05/27 01:05:07;;;;;;;1.27;0.93;;;;;;;;;;5037844;28;20100;-79
2021/05/27 01:07:33;;;;;;;1.73;0.88;;;;;;;;;;5065531;28;20016;-82
2021/05/27 01:09:58;;;;;;;2.05;1.10;;;;;;;;;;5077306;28;20076;-80
2021/05/27 01:12:23;;;;;;;1.27;0.80;;;;;;;;;;5060995;28;20043;-79
2021/05/27 01:17:35;;;;;;;3.00;1.23;;;;;;;;;;5037581;28;20027;-79
2021/05/27 01:20:00;;;;;;;3.15;1.00;;;;;;;;;;5053240;28;20458;-80
2021/05/27 01:22:26;;;;;;;2.15;0.90;;;;;;;;;;5039665;28;20025;-80
2021/05/27 01:24:51;;;;;;;1.00;0.90;;;;;;;;;;5039522;28;20469;-81
2021/05/27 01:27:17;;;;;;;1.60;1.10;;;;;;;;;;5057580;28;20064;-80
2021/05/27 01:29:42;;;;;;;1.58;0.90;;;;;;;;;;5046713;28;20343;-80
2021/05/27 01:32:08;;;;;;;2.10;1.10;;;;;;;;;;5075875;28;20052;-81
2021/05/27 01:34:35;;;;;;;2.20;0.88;;;;;;;;;;5070087;28;20060;-81
2021/05/27 01:37:00;;;;;;;3.67;0.95;;;;;;;;;;5055873;28;20017;-80
2021/05/27 01:39:25;;;;;;;4.53;0.90;;;;;;;;;;5059703;28;20035;-80
2021/05/27 01:41:51;;;;;;;2.92;1.05;;;;;;;;;;5040673;28;20096;-80
2021/05/27 01:44:17;;;;;;;1.17;0.88;;;;;;;;;;5054311;28;20510;-80
2021/05/27 01:46:43;;;;;;;1.83;1.00;;;;;;;;;;5064704;28;20024;-80
2021/05/27 01:49:08;;;;;;;1.63;0.80;;;;;;;;;;5076648;28;20028;-80
2021/05/27 01:51:34;;;;;;;0.80;0.52;;;;;;;;;;5074596;28;20122;-80
2021/05/27 01:53:59;;;;;;;1.23;0.70;;;;;;;;;;5061076;28;20028;-80
2021/05/27 01:56:24;;;;;;;0.77;0.65;;;;;;;;;;5056902;28;20029;-81
2021/05/27 01:58:49;;;;;;;1.20;0.70;;;;;;;;;;5060281;28;20029;-80
2021/05/27 02:01:15;;;;;;;1.60;0.68;;;;;;;;;;5041375;28;20056;-81
2021/05/27 02:03:40;;;;;;;3.83;0.80;;;;;;;;;;5058387;28;20128;-80
2021/05/27 02:06:05;;;;;;;1.27;0.70;;;;;;;;;;5057240;28;20017;-81
2021/05/27 02:08:30;;;;;;;1.23;0.68;;;;;;;;;;5041659;28;20051;-81
2021/05/27 02:10:56;;;;;;;0.95;0.73;;;;;;;;;;5059039;28;20476;-81
2021/05/27 02:13:22;;;;;;;0.88;0.68;;;;;;;;;;5062177;28;20036;-81
2021/05/27 02:15:47;;;;;;;1.20;0.75;;;;;;;;;;5077783;28;20029;-80
2021/05/27 02:18:13;;;;;;;1.15;0.70;;;;;;;;;;5060629;28;20362;-82
2021/05/27 02:20:39;;;;;;;1.23;0.85;;;;;;;;;;5061719;28;20032;-81
2021/05/27 02:23:05;;;;;;;2.88;0.68;;;;;;;;;;5062406;28;20025;-82
2021/05/27 02:25:30;;;;;;;1.10;0.80;;;;;;;;;;5060803;28;20035;-80
2021/05/27 02:27:56;;;;;;;1.08;0.70;;;;;;;;;;5046797;28;20089;-80
2021/05/27 02:30:21;;;;;;;1.45;0.90;;;;;;;;;;5046909;28;20028;-80
2021/05/27 02:32:46;;;;;;;1.63;1.00;;;;;;;;;;5043068;28;20398;-80
2021/05/27 02:35:12;;;;;;;0.90;0.80;;;;;;;;;;5026168;28;20053;-81
2021/05/27 02:37:37;;;;;;;4.03;1.00;;;;;;;;;;5042424;28;20033;-81
2021/05/27 02:40:03;;;;;;;1.02;0.90;;;;;;;;;;5058784;28;20025;-81
2021/05/27 02:42:28;;;;;;;2.03;0.90;;;;;;;;;;5067471;28;20078;-81
2021/05/27 02:44:53;;;;;;;0.98;0.77;;;;;;;;;;5058799;28;20028;-82
2021/05/27 02:47:19;;;;;;;1.88;1.00;;;;;;;;;;5064698;28;20033;-81
2021/05/27 02:49:44;;;;;;;4.53;1.05;;;;;;;;;;5067551;28;20021;-81
2021/05/27 02:52:09;;;;;;;1.77;1.00;;;;;;;;;;5064688;28;20115;-81
2021/05/27 02:54:34;;;;;;;2.35;1.05;;;;;;;;;;5067636;28;20048;-81
2021/05/27 02:57:00;;;;;;;1.73;1.15;;;;;;;;;;5084515;28;20016;-80
2021/05/27 02:59:26;;;;;;;2.08;0.90;;;;;;;;;;5093940;28;20350;-80
2021/05/27 03:01:51;;;;;;;3.67;1.00;;;;;;;;;;5060493;28;20075;-81
2021/05/27 03:04:16;;;;;;;3.83;1.05;;;;;;;;;;5061534;28;20456;-80
2021/05/27 03:06:43;;;;;;;2.47;0.82;;;;;;;;;;5046325;28;20036;-81
2021/05/27 03:09:08;;;;;;;1.33;0.95;;;;;;;;;;5075041;28;20057;-82
2021/05/27 03:11:34;;;;;;;2.78;1.00;;;;;;;;;;5086205;28;20049;-81
2021/05/27 03:13:59;;;;;;;1.73;1.00;;;;;;;;;;5073339;28;20025;-81
2021/05/27 03:16:24;;;;;;;1.25;0.93;;;;;;;;;;5066183;28;20054;-81
2021/05/27 03:18:51;;;;;;;1.13;0.77;;;;;;;;;;5072432;28;20005;-82
2021/05/27 03:21:16;;;;;;;4.95;1.10;;;;;;;;;;5078025;28;20009;-82
2021/05/27 03:23:42;;;;;;;1.58;1.10;;;;;;;;;;5070913;28;20096;-81
2021/05/27 03:26:07;;;;;;;1.38;0.90;;;;;;;;;;5070731;28;20442;-81
2021/05/27 03:28:32;;;;;;;4.25;1.20;;;;;;;;;;5085233;28;20062;-81
2021/05/27 03:30:57;;;;;;;1.35;0.93;;;;;;;;;;5072930;28;20351;-81
2021/05/27 03:33:23;;;;;;;1.30;0.95;;;;;;;;;;5059353;28;20060;-81
2021/05/27 03:35:48;;;;;;;1.65;1.00;;;;;;;;;;5061646;28;20036;-80
2021/05/27 03:38:13;;;;;;;1.88;1.20;;;;;;;;;;5064777;28;20032;-80
2021/05/27 03:40:39;;;;;;;2.30;1.10;;;;;;;;;;5066357;28;20024;-81
2021/05/27 03:43:04;;;;;;;2.95;1.00;;;;;;;;;;5083050;28;20056;-81
2021/05/27 03:45:31;;;;;;;2.20;0.93;;;;;;;;;;5076007;28;20020;-81
2021/05/27 03:47:56;;;;;;;0.82;0.70;;;;;;;;;;5060599;28;20431;-81
2021/05/27 03:50:23;;;;;;;1.60;0.90;;;;;;;;;;5064143;28;20033;-80
2021/05/27 03:52:49;;;;;;;1.35;0.98;;;;;;;;;;5060159;28;20065;-81
2021/05/27 03:55:15;;;;;;;1.95;1.10;;;;;;;;;;5066883;28;20024;-81
2021/05/27 03:57:40;;;;;;;1.65;0.80;;;;;;;;;;5070048;28;20017;-81
2021/05/27 04:02:53;;;;;;;1.52;0.73;;;;;;;;;;5063409;28;20129;-81
2021/05/27 04:08:04;;;;;;;1.52;1.00;;;;;;;;;;5064187;28;20035;-80
2021/05/27 04:10:29;;;;;;;1.90;1.10;;;;;;;;;;5061907;28;20048;-81
2021/05/27 04:12:55;;;;;;;1.15;0.70;;;;;;;;;;5059834;28;20021;-81
2021/05/27 04:15:25;;;;;;;1.00;0.80;;;;;;;;;;5041679;28;20032;-80
2021/05/27 04:17:56;;;;;;;1.65;0.85;;;;;;;;;;5059031;28;20013;-80
2021/05/27 04:20:24;;;;;;;2.30;0.77;;;;;;;;;;5064677;28;20045;-81
2021/05/27 04:22:50;;;;;;;2.35;1.00;;;;;;;;;;5069971;28;20398;-80
2021/05/27 04:25:16;;;;;;;1.10;0.70;;;;;;;;;;5080483;28;20036;-81
2021/05/27 04:27:42;;;;;;;0.73;0.65;;;;;;;;;;5085554;28;20017;-82
2021/05/27 04:30:13;;;;;;;2.95;0.75;;;;;;;;;;5064757;28;20032;-83
2021/05/27 04:32:54;;;;;;;0.80;0.70;;;;;;;;;;5069817;28;20106;-81
2021/05/27 04:35:20;;;;;;;2.40;0.90;;;;;;;;;;5057051;28;20069;-79
2021/05/27 04:37:45;;;;;;;2.25;0.90;;;;;;;;;;5080722;28;20016;-80
2021/05/27 04:40:11;;;;;;;3.63;0.90;;;;;;;;;;5078951;28;20024;-80
2021/05/27 04:42:37;;;;;;;2.75;0.70;;;;;;;;;;5067808;28;20047;-82
2021/05/27 04:45:02;;;;;;;1.08;0.80;;;;;;;;;;5073982;28;20057;-84
2021/05/27 04:47:28;;;;;;;1.05;0.80;;;;;;;;;;5075533;28;20028;-82
2021/05/27 04:49:53;;;;;;;1.75;0.90;;;;;;;;;;5070551;28;20051;-82
2021/05/27 04:52:18;;;;;;;0.80;0.70;;;;;;;;;;5049537;28;20050;-80
2021/05/27 04:54:43;;;;;;;3.05;1.00;;;;;;;;;;5059536;28;20645;-80
2021/05/27 04:57:09;;;;;;;0.90;0.60;;;;;;;;;;5100376;28;20027;-82
2021/05/27 04:59:34;;;;;;;1.13;0.68;;;;;;;;;;5056531;28;20017;-82
2021/05/27 05:01:59;;;;;;;1.77;0.73;;;;;;;;;;5075878;28;20021;-81
2021/05/27 05:04:24;;;;;;;1.75;0.85;;;;;;;;;;5074679;28;20005;-81
2021/05/27 05:06:51;;;;;;;0.70;0.60;;;;;;;;;;5058593;28;20036;-81
2021/05/27 05:09:16;;;;;;;0.57;0.50;;;;;;;;;;5049242;28;20028;-81
2021/05/27 05:11:41;;;;;;;1.30;0.45;;;;;;;;;;5085218;28;20048;-81
2021/05/27 05:14:06;;;;;;;0.68;0.60;;;;;;;;;;5063725;28;20005;-82
2021/05/27 05:16:32;;;;;;;0.85;0.65;;;;;;;;;;5059289;28;20029;-80
2021/05/27 05:18:57;;;;;;;0.63;0.63;;;;;;;;;;5066174;28;20022;-80
2021/05/27 05:21:22;;;;;;;1.25;0.60;;;;;;;;;;5069689;28;20029;-81
2021/05/27 05:23:47;;;;;;;0.73;0.60;;;;;;;;;;5051353;28;20071;-80
2021/05/27 05:26:13;;;;;;;1.17;0.70;;;;;;;;;;5051430;28;20450;-81
2021/05/27 05:28:38;;;;;;;0.60;0.60;;;;;;;;;;5053532;28;20052;-80
2021/05/27 05:31:04;;;;;;;0.85;0.70;;;;;;;;;;5045060;28;20028;-81
2021/05/27 05:33:30;;;;;;;1.67;0.60;;;;;;;;;;5055992;28;20020;-82
2021/05/27 05:35:55;;;;;;;2.17;0.60;;;;;;;;;;5054234;28;20017;-82
2021/05/27 05:38:20;;;;;;;1.60;0.60;;;;;;;;;;5071220;28;20036;-83
2021/05/27 05:40:45;;;;;;;0.60;0.60;;;;;;;;;;5066173;28;20034;-81
2021/05/27 05:43:11;;;;;;;1.20;0.73;;;;;;;;;;5060178;28;20211;-82
2021/05/27 05:45:36;;;;;;;1.02;0.70;;;;;;;;;;5047778;28;20031;-82
2021/05/27 05:48:01;;;;;;;1.95;0.70;;;;;;;;;;5061615;28;20031;-81
2021/05/27 05:53:12;;;;;;;4.07;0.70;;;;;;;;;;5059205;28;20060;-80
2021/05/27 05:55:38;;;;;;;1.73;0.90;;;;;;;;;;5057401;28;20048;-81
2021/05/27 05:58:03;;;;;;;1.98;0.85;;;;;;;;;;5065595;28;20032;-81
2021/05/27 06:00:29;;;;;;;1.05;0.70;;;;;;;;;;5061134;28;20024;-82
2021/05/27 06:02:55;;;;;;;1.20;1.00;;;;;;;;;;5068018;28;20092;-81
2021/05/27 06:05:20;;;;;;;1.40;1.05;;;;;;;;;;5063740;28;20645;-81
2021/05/27 06:07:45;;;;;;;2.13;0.82;;;;;;;;;;5061892;28;20575;-80
2021/05/27 06:10:10;;;;;;;2.55;1.00;;;;;;;;;;5048586;28;20083;-80
2021/05/27 06:12:36;;;;;;;1.10;0.98;;;;;;;;;;5065115;28;20017;-82
2021/05/27 06:15:01;;;;;;;1.20;0.90;;;;;;;;;;5059300;28;20049;-81
2021/05/27 06:17:26;;;;;;;1.83;1.00;;;;;;;;;;5059691;28;20354;-82
2021/05/27 06:19:52;;;;;;;2.17;1.00;;;;;;;;;;5067516;28;20025;-80
2021/05/27 06:22:17;;;;;;;3.25;1.20;;;;;;;;;;5067821;28;20036;-82
2021/05/27 06:24:42;;;;;;;1.88;1.30;;;;;;;;;;5070056;28;20024;-81
2021/05/27 06:27:08;;;;;;;2.80;1.23;;;;;;;;;;5070527;28;20049;-81
2021/05/27 06:29:34;;;;;;;3.13;1.23;;;;;;;;;;5055718;28;20021;-81
2021/05/27 06:31:59;;;;;;;2.65;1.30;;;;;;;;;;5065361;28;20052;-82
2021/05/27 06:34:24;;;;;;;1.52;1.00;;;;;;;;;;5060535;28;20021;-82
2021/05/27 06:36:50;;;;;;;1.65;0.82;;;;;;;;;;5066720;28;20081;-81
2021/05/27 06:39:15;;;;;;;1.35;1.20;;;;;;;;;;5070728;28;20022;-82
2021/05/27 06:41:40;;;;;;;2.13;1.10;;;;;;;;;;5070787;28;20085;-82
2021/05/27 06:44:05;;;;;;;1.10;0.75;;;;;;;;;;5075019;28;20029;-81
2021/05/27 06:46:31;;;;;;;2.50;0.98;;;;;;;;;;5071211;28;20482;-81
2021/05/27 06:48:57;;;;;;;1.20;0.80;;;;;;;;;;5069551;28;20122;-83
2021/05/27 06:51:22;;;;;;;1.17;0.80;;;;;;;;;;5074020;28;20083;-82
2021/05/27 06:53:48;;;;;;;1.92;0.82;;;;;;;;;;5067184;28;20033;-81
2021/05/27 06:56:13;;;;;;;1.65;0.77;;;;;;;;;;5073575;28;20047;-82
2021/05/27 06:58:38;;;;;;;1.27;0.70;;;;;;;;;;5067942;28;20021;-82
2021/05/27 07:01:04;;;;;;;1.52;0.80;;;;;;;;;;5067806;28;20013;-81
2021/05/27 07:03:29;;;;;;;1.10;0.70;;;;;;;;;;5064484;28;20013;-83
2021/05/27 07:05:55;;;;;;;1.30;0.88;;;;;;;;;;5057243;28;20041;-81
2021/05/27 07:08:20;;;;;;;3.53;0.90;;;;;;;;;;5074873;28;20457;-82
2021/05/27 07:10:45;;;;;;;1.95;0.60;;;;;;;;;;5069847;28;20017;-81
2021/05/27 07:13:11;;;;;;;1.17;0.82;;;;;;;;;;5061124;28;20035;-81
2021/05/27 07:15:36;;;;;;;2.83;0.57;;;;;;;;;;5058648;28;20059;-82
2021/05/27 07:18:02;;;;;;;0.90;0.77;;;;;;;;;;5060110;28;20506;-81
2021/05/27 07:20:28;;;;;;;1.35;0.60;;;;;;;;;;5067680;28;20056;-82
2021/05/27 07:22:54;;;;;;;1.55;1.10;;;;;;;;;;5077721;28;20032;-81
2021/05/27 07:25:20;;;;;;;0.60;0.50;;;;;;;;;;5067178;28;20363;-82
2021/05/27 07:27:48;;;;;;;0.60;0.60;;;;;;;;;;5070110;28;20013;-83
2021/05/27 07:30:13;;;;;;;2.55;0.77;;;;;;;;;;5068378;28;20022;-83
2021/05/27 07:32:38;;;;;;;1.13;0.43;;;;;;;;;;5060541;28;20040;-83
2021/05/27 07:35:05;;;;;;;2.35;0.60;;;;;;;;;;5072557;28;20085;-82
2021/05/27 07:37:30;;;;;;;0.73;0.40;;;;;;;;;;5073508;28;20021;-82
2021/05/27 07:39:55;;;;;;;3.22;0.63;;;;;;;;;;5071081;28;20025;-83
2021/05/27 07:42:20;;;;;;;1.60;0.77;;;;;;;;;;5082067;28;20039;-81
2021/05/27 07:44:46;;;;;;;1.60;0.60;;;;;;;;;;5093040;28;20052;-83
2021/05/27 07:47:11;;;;;;;1.30;0.80;;;;;;;;;;5085840;28;20021;-82
2021/05/27 07:49:37;;;;;;;0.88;0.60;;;;;;;;;;5075586;28;20021;-82
2021/05/27 07:52:04;;;;;;;1.10;0.70;;;;;;;;;;5073884;28;20049;-82
2021/05/27 07:54:29;;;;;;;1.48;0.65;;;;;;;;;;5075645;28;20013;-83
2021/05/27 07:56:55;;;;;;;1.05;0.60;;;;;;;;;;5074952;28;20008;-82
2021/05/27 07:59:20;;;;;;;1.10;0.70;;;;;;;;;;5091202;28;20074;-83
2021/05/27 08:01:45;;;;;;;1.17;0.77;;;;;;;;;;5083274;28;20024;-83
2021/05/27 08:04:12;;;;;;;2.70;0.80;;;;;;;;;;5075154;28;20052;-83
2021/05/27 08:06:37;;;;;;;2.80;0.80;;;;;;;;;;5072092;28;20020;-82
2021/05/27 08:09:06;;;;;;;1.15;0.70;;;;;;;;;;5056449;28;20048;-83
2021/05/27 08:11:31;;;;;;;2.35;0.70;;;;;;;;;;5094840;28;20017;-83
2021/05/27 08:13:57;;;;;;;1.80;0.70;;;;;;;;;;5095365;28;20047;-82
2021/05/27 08:16:23;;;;;;;3.60;0.77;;;;;;;;;;5091255;28;20017;-83
2021/05/27 08:18:48;;;;;;;1.52;0.65;;;;;;;;;;5076833;28;20008;-82
2021/05/27 08:21:14;;;;;;;1.00;0.60;;;;;;;;;;5094322;28;20032;-82
2021/05/27 08:23:39;;;;;;;1.25;0.93;;;;;;;;;;5091629;28;20040;-82
2021/05/27 08:26:04;;;;;;;2.42;1.05;;;;;;;;;;5074879;28;20021;-82
2021/05/27 08:28:30;;;;;;;1.02;0.90;;;;;;;;;;5074715;28;20032;-81
2021/05/27 08:30:57;;;;;;;0.82;0.80;;;;;;;;;;5083702;28;20052;-81
2021/05/27 08:33:22;;;;;;;1.88;1.00;;;;;;;;;;5073933;28;20032;-83
2021/05/27 08:35:47;;;;;;;3.35;1.00;;;;;;;;;;5073182;28;20093;-82
2021/05/27 08:38:13;;;;;;;1.45;1.00;;;;;;;;;;5084441;28;20081;-82
2021/05/27 08:40:38;;;;;;;1.77;1.30;;;;;;;;;;5094600;28;20020;-81
2021/05/27 08:43:04;;;;;;;1.35;1.20;;;;;;;;;;5084652;28;20021;-83
2021/05/27 08:45:34;;;;;;;3.10;1.08;;;;;;;;;;5069255;28;20413;-80
2021/05/27 08:47:59;;;;;;;1.30;1.02;;;;;;;;;;5069161;28;20100;-81
2021/05/27 08:50:30;;;;;;;2.55;1.23;;;;;;;;;;5057605;28;20026;-80
2021/05/27 08:52:56;;;;;;;5.55;1.38;;;;;;;;;;5052409;28;20125;-81
2021/05/27 08:55:21;;;;;;;3.10;1.10;;;;;;;;;;5063171;28;20026;-82
2021/05/27 08:57:46;;;;;;;1.52;1.25;;;;;;;;;;5073558;28;20077;-83
2021/05/27 09:00:12;;;;;;;2.50;1.10;;;;;;;;;;5074766;28;20005;-82
2021/05/27 09:02:53;;;;;;;2.28;1.25;;;;;;;;;;5073383;28;20254;-83
2021/05/27 09:05:19;;;;;;;2.40;1.50;;;;;;;;;;5077319;28;20025;-84
2021/05/27 09:07:44;;;;;;;3.78;1.30;;;;;;;;;;5068129;28;20024;-81
2021/05/27 09:10:10;;;;;;;2.40;1.38;;;;;;;;;;5057037;28;20072;-82
2021/05/27 09:12:36;;;;;;;1.52;1.20;;;;;;;;;;5054766;28;20040;-82
2021/05/27 09:15:21;;;;;;;2.88;1.42;;;;;;;;;;5069433;28;20110;-83
2021/05/27 09:17:48;;;;;;;2.13;0.95;;;;;;;;;;5078168;28;20076;-82
2021/05/27 09:20:16;;;;;;;1.58;1.20;;;;;;;;;;5071562;28;20002;-83
2021/05/27 09:22:42;;;;;;;2.63;1.40;;;;;;;;;;5074836;28;20021;-85
2021/05/27 09:25:08;;;;;;;1.67;1.20;;;;;;;;;;5068799;28;20021;-81
2021/05/27 09:27:46;;;;;;;1.95;1.33;;;;;;;;;;5064030;28;20502;-80
2021/05/27 09:30:12;;;;;;;2.65;1.40;;;;;;;;;;5062321;28;20021;-82
2021/05/27 09:32:38;;;;;;;8.10;1.42;;;;;;;;;;5065944;28;20044;-80
2021/05/27 09:35:08;;;;;;;1.77;1.30;;;;;;;;;;5064940;28;20028;-82
2021/05/27 09:37:33;;;;;;;1.67;1.38;;;;;;;;;;5065455;28;20357;-82
2021/05/27 09:39:59;;;;;;;3.47;1.23;;;;;;;;;;5064683;28;20036;-82
2021/05/27 09:42:25;;;;;;;2.50;1.20;;;;;;;;;;5068051;28;20064;-82
2021/05/27 09:44:51;;;;;;;4.30;1.25;;;;;;;;;;5064666;28;20104;-81
2021/05/27 09:47:30;;;;;;;1.65;1.15;;;;;;;;;;5070241;28;20022;-81
2021/05/27 09:49:56;;;;;;;3.70;1.40;;;;;;;;;;5086478;28;20048;-81
2021/05/27 09:52:24;;;;;;;2.95;1.35;;;;;;;;;;5069971;28;20129;-82
2021/05/27 09:54:53;;;;;;;1.35;1.20;;;;;;;;;;5064120;28;20039;-81
2021/05/27 09:57:19;;;;;;;3.42;1.20;;;;;;;;;;5068042;28;20036;-81
2021/05/27 09:59:44;;;;;;;5.32;1.33;;;;;;;;;;5066670;28;20036;-79
2021/05/27 10:02:18;;;;;;;4.65;1.10;;;;;;;;;;5069043;28;20029;-81
2021/05/27 10:04:55;;;;;;;1.90;1.40;;;;;;;;;;5052841;28;20025;-81
2021/05/27 10:07:34;;;;;;;3.65;1.10;;;;;;;;;;5071264;28;20028;-82
2021/05/27 10:10:00;;;;;;;2.03;1.20;;;;;;;;;;5070871;28;20036;-82
2021/05/27 10:12:25;;;;;;;2.78;1.20;;;;;;;;;;5075584;28;20068;-82
2021/05/27 10:14:51;;;;;;;2.88;1.20;;;;;;;;;;5076070;28;20055;-81
2021/05/27 10:17:16;;;;;;;1.77;1.30;;;;;;;;;;5075938;28;20029;-81
2021/05/27 10:19:42;;;;;;;2.65;1.30;;;;;;;;;;5072230;28;20032;-81
2021/05/27 10:22:07;;;;;;;1.77;1.13;;;;;;;;;;5050385;28;20025;-81
2021/05/27 10:24:33;;;;;;;2.00;1.25;;;;;;;;;;5048474;28;20509;-82
2021/05/27 10:26:59;;;;;;;1.67;1.17;;;;;;;;;;5070075;28;20021;-82
2021/05/27 10:29:24;;;;;;;1.75;1.25;;;;;;;;;;5077345;28;20005;-84
2021/05/27 10:31:50;;;;;;;1.40;1.10;;;;;;;;;;5378636;23;21012;-80
2021/05/27 10:34:38;;;;;;;1.25;1.00;;;;;;;;;;5057123;28;20089;-83
2021/05/27 10:37:06;;;;;;;2.72;1.20;;;;;;;;;;5069435;28;20004;-84
2021/05/27 10:39:32;;;;;;;1.85;1.10;;;;;;;;;;5055610;28;20006;-84
2021/05/27 10:41:58;;;;;;;2.05;1.20;;;;;;;;;;5038475;28;20017;-84
2021/05/27 10:44:23;;;;;;;3.15;1.40;;;;;;;;;;5045112;28;20025;-81
2021/05/27 10:46:48;;;;;;;1.75;1.25;;;;;;;;;;5034710;28;20024;-81
2021/05/27 10:49:32;;;;;;;2.40;1.08;;;;;;;;;;5035548;28;20030;-81
2021/05/27 10:52:18;;;;;;;4.90;1.45;;;;;;;;;;5035074;28;20490;-81
2021/05/27 10:54:44;;;;;;;;;;;;;;;;;;5028467;28;20045;-83
2021/05/27 10:57:10;;;;;;;3.97;1.20;;;;;;;;;;5032230;28;19905;-80
2021/05/27 10:59:35;;;;;;;2.92;1.17;;;;;;;;;;5033585;28;20017;-81
2021/05/27 11:02:01;;;;;;;3.28;1.48;;;;;;;;;;5027980;28;20347;-80
2021/05/27 11:04:31;;;;;;;3.03;1.20;;;;;;;;;;5032897;28;20031;-80
2021/05/27 11:07:10;;;;;;;1.52;1.05;;;;;;;;;;5038117;28;20035;-80
2021/05/27 11:09:37;;;;;;;3.10;0.95;;;;;;;;;;5036344;28;20064;-80
2021/05/27 11:12:10;;;;;;;2.22;1.20;;;;;;;;;;5031293;28;20053;-80
2021/05/27 11:14:39;;;;;;;1.15;1.00;;;;;;;;;;5039976;28;20051;-80
2021/05/27 11:17:04;;;;;;;1.30;1.20;;;;;;;;;;5019822;28;20013;-79
2021/05/27 11:22:36;;;;;;;1.25;1.08;;;;;;;;;;5034373;28;20040;-80
2021/05/27 11:25:10;;;;;;;1.20;1.05;;;;;;;;;;5043843;28;20013;-80
2021/05/27 11:27:36;;;;;;;1.10;0.90;;;;;;;;;;5054570;28;20025;-79
2021/05/27 11:30:21;;;;;;;1.58;1.00;;;;;;;;;;5041464;28;20751;-79
2021/05/27 11:32:48;;;;;;;;;;;;;;;;;;5035387;28;20584;-80
2021/05/27 11:35:14;;;;;;;1.52;0.80;;;;;;;;;;5038097;28;20258;-79
2021/05/27 11:37:40;;;;;;;1.02;0.93;;;;;;;;;;5048056;28;20018;-80
2021/05/27 11:40:07;;;;;;;1.13;0.80;;;;;;;;;;5043324;28;20032;-80
2021/05/27 11:42:33;;;;;;;0.90;0.60;;;;;;;;;;5049548;28;20036;-80
2021/05/27 11:45:02;;;;;;;1.58;1.05;;;;;;;;;;5036146;28;20876;-80
2021/05/27 11:47:28;;;;;;;1.02;1.00;;;;;;;;;;5035159;28;20448;-80
2021/05/27 11:50:13;;;;;;;1.65;1.10;;;;;;;;;;5030444;28;20033;-81
2021/05/27 11:52:38;;;;;;;;;;;;;;;;;;5033865;28;20025;-81
2021/05/27 11:55:11;;;;;;;1.10;1.00;;;;;;;;;;5050943;28;20421;-80
2021/05/27 11:57:46;;;;;;;2.38;0.98;;;;;;;;;;5037100;28;20021;-80
2021/05/27 12:00:13;;;;;;;1.00;0.90;;;;;;;;;;5051513;28;20016;-81
2021/05/27 12:02:41;;;;;;;1.08;0.82;;;;;;;;;;5062716;28;20037;-81
2021/05/27 12:05:25;;;;;;;1.30;0.85;;;;;;;;;;5041836;28;20049;-81
2021/05/27 12:08:08;;;;;;;1.25;1.10;;;;;;;;;;5041396;28;20025;-81
2021/05/27 12:10:35;;;;;;;1.95;0.90;;;;;;;;;;5041636;28;20447;-80
2021/05/27 12:13:00;;;;;;;1.08;0.90;;;;;;;;;;5042209;28;20022;-81
2021/05/27 12:15:27;;;;;;;2.30;0.85;;;;;;;;;;5051321;28;20018;-82
2021/05/27 12:17:53;;;;;;;1.50;1.00;;;;;;;;;;5050466;28;20355;-81
2021/05/27 12:20:27;;;;;;;1.20;1.10;;;;;;;;;;5046789;28;20022;-82
2021/05/27 12:23:10;;;;;;;2.10;1.00;;;;;;;;;;5041634;28;20081;-82
2021/05/27 12:25:37;;;;;;;1.33;1.15;;;;;;;;;;5047657;28;20025;-82
2021/05/27 12:28:19;;;;;;;1.58;1.15;;;;;;;;;;5051146;28;20083;-82
2021/05/27 12:30:46;;;;;;;1.85;1.00;;;;;;;;;;5030186;28;20118;-81
2021/05/27 12:33:18;;;;;;;1.00;0.90;;;;;;;;;;5044554;28;20468;-82
2021/05/27 12:35:44;;;;;;;1.30;0.90;;;;;;;;;;5045511;28;20471;-81
2021/05/27 12:38:19;;;;;;;1.05;0.88;;;;;;;;;;5049318;28;20022;-81
2021/05/27 12:40:50;;;;;;;2.55;0.85;;;;;;;;;;5049930;28;20037;-81
2021/05/27 12:43:21;;;;;;;0.70;0.70;;;;;;;;;;5043826;28;20028;-81
2021/05/27 12:45:48;;;;;;;1.20;1.10;;;;;;;;;;5041653;28;20113;-81
2021/05/27 12:48:15;;;;;;;1.05;0.90;;;;;;;;;;5054418;28;20021;-81
2021/05/27 12:50:50;;;;;;;2.45;1.00;;;;;;;;;;5045531;28;20032;-81
2021/05/27 12:53:27;;;;;;;1.88;1.10;;;;;;;;;;5045315;28;20043;-81
2021/05/27 12:55:54;;;;;;;2.92;1.10;;;;;;;;;;5053066;28;20371;-81
2021/05/27 12:58:32;;;;;;;1.75;0.90;;;;;;;;;;5041466;28;20029;-81
2021/05/27 13:00:58;;;;;;;2.30;1.25;;;;;;;;;;5036461;28;20029;-80
2021/05/27 13:03:23;;;;;;;1.85;0.93;;;;;;;;;;5040936;28;20402;-81
2021/05/27 13:06:02;;;;;;;1.67;1.02;;;;;;;;;;5036438;28;20025;-81
2021/05/27 13:08:31;;;;;;;1.88;1.00;;;;;;;;;;5036905;28;20060;-81
2021/05/27 13:10:58;;;;;;;1.10;1.00;;;;;;;;;;5039188;28;20025;-80
2021/05/27 13:13:33;;;;;;;3.22;1.08;;;;;;;;;;5046445;28;20041;-80
2021/05/27 13:15:58;;;;;;;1.80;1.00;;;;;;;;;;5055096;28;20032;-81
2021/05/27 13:18:24;;;;;;;1.42;1.15;;;;;;;;;;5047338;28;20016;-81
2021/05/27 13:20:52;;;;;;;1.35;1.00;;;;;;;;;;5045291;28;20025;-81
2021/05/27 13:23:39;;;;;;;3.42;1.05;;;;;;;;;;5053617;28;20032;-81
2021/05/27 13:26:25;;;;;;;1.83;1.10;;;;;;;;;;5047485;28;20021;-81
2021/05/27 13:29:00;;;;;;;3.78;1.10;;;;;;;;;;5036990;28;20061;-81
2021/05/27 13:31:36;;;;;;;2.00;1.25;;;;;;;;;;5043998;28;20017;-81
2021/05/27 13:34:02;;;;;;;2.38;1.13;;;;;;;;;;5064187;28;20103;-81
2021/05/27 13:36:27;;;;;;;3.97;1.40;;;;;;;;;;5048479;28;20021;-82
2021/05/27 13:38:52;;;;;;;4.43;1.25;;;;;;;;;;5060505;28;20037;-80
2021/05/27 13:41:18;;;;;;;1.50;1.08;;;;;;;;;;5027118;28;20013;-82
2021/05/27 13:43:43;;;;;;;1.50;1.02;;;;;;;;;;5040662;28;20037;-82
2021/05/27 13:46:08;;;;;;;0.90;0.90;;;;;;;;;;5040000;28;20032;-81
2021/05/27 13:48:35;;;;;;;4.47;1.30;;;;;;;;;;5042659;28;20024;-81
2021/05/27 13:51:02;;;;;;;1.70;1.00;;;;;;;;;;5045545;28;20056;-81
2021/05/27 13:53:27;;;;;;;1.75;1.10;;;;;;;;;;5032810;28;20029;-82
2021/05/27 13:55:57;;;;;;;2.05;1.35;;;;;;;;;;5053842;28;20080;-81
2021/05/27 13:58:23;;;;;;;1.60;1.13;;;;;;;;;;5029467;28;20024;-82
2021/05/27 14:00:49;;;;;;;2.13;1.20;;;;;;;;;;5041657;28;20081;-81
2021/05/27 14:03:14;;;;;;;3.85;1.20;;;;;;;;;;5054399;28;20393;-81
2021/05/27 14:05:39;;;;;;;1.27;1.17;;;;;;;;;;5043184;28;20032;-81
2021/05/27 14:08:06;;;;;;;2.70;1.25;;;;;;;;;;5042317;28;20093;-82
2021/05/27 14:10:31;;;;;;;1.80;1.17;;;;;;;;;;5048798;28;20010;-81
2021/05/27 14:12:58;;;;;;;2.95;1.20;;;;;;;;;;5030401;28;20026;-81
2021/05/27 14:15:23;;;;;;;2.20;1.20;;;;;;;;;;5053662;28;20017;-81
2021/05/27 14:17:49;;;;;;;1.80;1.10;;;;;;;;;;5056610;28;20028;-81
2021/05/27 14:20:14;;;;;;;1.25;0.95;;;;;;;;;;5043976;28;20025;-82
2021/05/27 14:22:39;;;;;;;2.92;0.95;;;;;;;;;;5040440;28;20022;-80
2021/05/27 14:25:06;;;;;;;3.30;0.98;;;;;;;;;;5032357;28;20026;-81
2021/05/27 14:27:32;;;;;;;1.85;1.00;;;;;;;;;;5039203;28;20132;-80
2021/05/27 14:29:57;;;;;;;1.65;1.30;;;;;;;;;;5041818;28;20045;-81
2021/05/27 14:32:23;;;;;;;1.70;1.25;;;;;;;;;;5033907;28;20042;-82
2021/05/27 14:34:49;;;;;;;0.70;0.70;;;;;;;;;;5044036;28;20052;-81
2021/05/27 14:37:14;;;;;;;1.08;0.90;;;;;;;;;;5038692;28;20037;-81
2021/05/27 14:39:40;;;;;;;0.70;0.70;;;;;;;;;;5047862;28;20017;-80
2021/05/27 14:42:05;;;;;;;1.02;0.80;;;;;;;;;;5039769;28;20025;-80
2021/05/27 14:44:32;;;;;;;1.17;0.80;;;;;;;;;;5043917;28;20089;-80
2021/05/27 14:46:57;;;;;;;1.00;0.80;;;;;;;;;;5042969;28;20014;-81
2021/05/27 14:49:23;;;;;;;0.98;0.60;;;;;;;;;;5043332;28;20024;-81
2021/05/27 14:51:48;;;;;;;3.25;0.77;;;;;;;;;;5044352;28;20098;-81
2021/05/27 14:54:13;;;;;;;0.80;0.55;;;;;;;;;;5039114;28;20052;-83
2021/05/27 14:56:39;;;;;;;0.63;0.50;;;;;;;;;;5053120;28;20010;-82